Time;durP1;ratioP1;P1;durP2;ratioP2;P2;SDS_P1;SDS_P2;PMS_P1;PMS_P2;Temp;Humidity;BMP_temperature;BMP_pressure;BME280_temperature;BME280_humidity;BME280_pressure;Samples;Min_cycle;Max_cycle;Signal;HPM_P1;HPM_P2
2024/03/31 00:00:47;;;;;;;;;;;10.40;1.00;;;;;;5054020;28;19909;-76
2024/03/31 00:03:15;;;;;;;;;;;10.40;1.00;;;;;;5049174;28;19913;-76
2024/03/31 00:05:41;;;;;;;;;;;10.30;1.00;;;;;;5053338;28;19908;-76
2024/03/31 00:08:07;;;;;;;;;;;10.50;1.00;;;;;;5053929;28;19909;-77
2024/03/31 00:10:34;;;;;;;;;;;10.50;1.00;;;;;;5053552;28;20361;-76
2024/03/31 00:13:23;;;;;;;;;;;10.40;1.00;;;;;;5063564;28;20008;-76
2024/03/31 00:16:11;;;;;;;;;;;10.40;1.00;;;;;;5046989;28;19917;-76
2024/03/31 00:18:59;;;;;;;;;;;10.30;1.00;;;;;;5041291;28;19916;-77
2024/03/31 00:21:29;;;;;;;;;;;10.30;1.00;;;;;;5050389;28;19913;-77
2024/03/31 00:23:59;;;;;;;;;;;10.30;1.00;;;;;;5034049;28;20187;-77
2024/03/31 00:26:24;;;;;;;;;;;10.40;1.30;;;;;;5051220;28;19960;-77
2024/03/31 00:28:59;;;;;;;;;;;10.40;1.00;;;;;;5053212;28;19936;-77
2024/03/31 00:31:29;;;;;;;;;;;10.30;1.00;;;;;;5051674;28;19919;-77
2024/03/31 00:33:59;;;;;;;;;;;10.10;6.70;;;;;;5053785;28;19909;-76
2024/03/31 00:36:29;;;;;;;;;;;10.10;13.40;;;;;;5055902;28;19921;-76
2024/03/31 00:38:59;;;;;;;;;;;10.10;16.30;;;;;;5036376;28;19940;-77
2024/03/31 00:41:29;;;;;;;;;;;10.20;18.60;;;;;;5049240;28;19913;-77
2024/03/31 00:43:54;;;;;;;;;;;10.30;14.20;;;;;;5050145;28;19909;-76
2024/03/31 00:46:20;;;;;;;;;;;10.40;11.50;;;;;;5044069;28;19935;-76
2024/03/31 00:48:45;;;;;;;;;;;10.40;9.40;;;;;;5062903;28;19913;-76
2024/03/31 00:51:29;;;;;;;;;;;10.40;11.70;;;;;;5043338;28;20000;-77
2024/03/31 00:53:54;;;;;;;;;;;10.50;5.40;;;;;;5052142;28;19989;-76
2024/03/31 00:56:20;;;;;;;;;;;10.50;8.30;;;;;;5054938;28;20007;-76
2024/03/31 00:58:47;;;;;;;;;;;10.50;8.00;;;;;;5053434;28;19916;-76
2024/03/31 01:01:29;;;;;;;;;;;10.50;5.50;;;;;;5035028;28;20003;-76
2024/03/31 01:03:59;;;;;;;;;;;10.50;7.90;;;;;;5047097;28;19916;-77
2024/03/31 01:06:29;;;;;;;;;;;10.50;5.80;;;;;;5070943;28;19919;-76
2024/03/31 01:08:59;;;;;;;;;;;10.50;8.20;;;;;;5053528;28;20415;-76
2024/03/31 01:11:35;;;;;;;;;;;10.50;8.90;;;;;;5039728;28;19916;-76
2024/03/31 01:14:16;;;;;;;;;;;10.50;8.70;;;;;;5053188;28;19909;-76
2024/03/31 01:16:42;;;;;;;;;;;10.40;7.90;;;;;;5050317;28;20081;-76
2024/03/31 01:19:23;;;;;;;;;;;10.40;10.70;;;;;;5053101;28;20384;-77
2024/03/31 01:21:59;;;;;;;;;;;10.40;11.60;;;;;;5041295;28;20272;-76
2024/03/31 01:24:29;;;;;;;;;;;10.40;15.00;;;;;;5036303;28;20280;-76
2024/03/31 01:26:59;;;;;;;;;;;10.40;13.90;;;;;;5042752;28;20000;-76
2024/03/31 01:29:24;;;;;;;;;;;10.50;10.20;;;;;;5052721;28;19999;-76
2024/03/31 01:31:59;;;;;;;;;;;10.50;12.70;;;;;;5059050;28;19999;-76
2024/03/31 01:34:29;;;;;;;;;;;;;;;;;;5069537;28;19913;-76
2024/03/31 01:36:59;;;;;;;;;;;10.40;10.20;;;;;;5052638;28;20107;-77
2024/03/31 01:39:29;;;;;;;;;;;10.40;13.60;;;;;;5053196;28;20392;-76
2024/03/31 01:41:59;;;;;;;;;;;10.40;10.90;;;;;;5056811;28;19920;-76
2024/03/31 01:44:24;;;;;;;;;;;10.50;13.80;;;;;;5056992;28;19909;-76
2024/03/31 01:46:53;;;;;;;;;;;10.50;10.40;;;;;;5051401;28;19992;-76
2024/03/31 01:49:23;;;;;;;;;;;10.50;13.10;;;;;;5048814;28;21630;-76
2024/03/31 01:51:53;;;;;;;;;;;10.50;10.20;;;;;;5063454;28;19913;-77
2024/03/31 01:54:47;;;;;;;;;;;10.50;12.10;;;;;;5058675;28;19962;-79
2024/03/31 01:57:17;;;;;;;;;;;10.60;13.00;;;;;;5047686;28;19921;-77
2024/03/31 02:02:46;;;;;;;;;;;10.60;13.90;;;;;;5058858;28;19924;-77
2024/03/31 02:05:23;;;;;;;;;;;10.60;10.40;;;;;;5056844;28;19912;-76
2024/03/31 02:07:59;;;;;;;;;;;10.60;12.80;;;;;;5056614;28;19974;-76
2024/03/31 02:13:23;;;;;;;;;;;10.60;11.80;;;;;;5053498;28;19955;-76
2024/03/31 02:15:48;;;;;;;;;;;10.60;12.20;;;;;;5056432;28;19920;-76
2024/03/31 02:18:14;;;;;;;;;;;10.60;10.20;;;;;;5056243;28;19920;-76
2024/03/31 02:20:40;;;;;;;;;;;10.60;12.90;;;;;;5056334;28;19913;-77
2024/03/31 02:23:17;;;;;;;;;;;10.60;11.60;;;;;;5055968;28;20014;-77
2024/03/31 02:25:47;;;;;;;;;;;10.60;14.10;;;;;;5052488;28;19970;-77
2024/03/31 02:28:47;;;;;;;;;;;10.60;11.60;;;;;;5064891;28;19908;-77
2024/03/31 02:31:12;;;;;;;;;;;10.60;14.40;;;;;;5062036;28;19950;-77
2024/03/31 02:33:38;;;;;;;;;;;10.60;14.50;;;;;;5059417;28;19944;-77
2024/03/31 02:36:04;;;;;;;;;;;10.60;11.90;;;;;;5050357;28;19952;-76
2024/03/31 02:38:30;;;;;;;;;;;10.60;14.20;;;;;;5055646;28;19932;-77
2024/03/31 02:41:05;;;;;;;;;;;10.70;9.40;;;;;;5057452;28;20344;-76
2024/03/31 02:43:35;;;;;;;;;;;10.70;12.20;;;;;;5055971;28;19919;-76
2024/03/31 02:46:00;;;;;;;;;;;10.70;10.70;;;;;;5045018;28;19955;-76
2024/03/31 02:48:26;;;;;;;;;;;10.70;13.40;;;;;;5062202;28;19940;-76
2024/03/31 02:51:05;;;;;;;;;;;10.70;13.60;;;;;;5075024;28;19912;-77
2024/03/31 02:56:47;;;;;;;;;;;10.80;13.70;;;;;;5059314;28;19966;-78
2024/03/31 02:59:41;;;;;;;;;;;10.80;11.60;;;;;;5064452;28;19909;-77
2024/03/31 03:02:06;;;;;;;;;;;10.80;13.80;;;;;;5045955;28;20045;-77
2024/03/31 03:08:05;;;;;;;;;;;10.80;14.20;;;;;;5055261;28;19962;-77
2024/03/31 03:11:05;;;;;;;;;;;10.80;11.50;;;;;;5062386;28;19908;-77
2024/03/31 03:13:43;;;;;;;;;;;10.90;13.90;;;;;;5067201;28;19913;-77
2024/03/31 03:16:29;;;;;;;;;;;10.90;9.40;;;;;;5049608;28;19920;-77
2024/03/31 03:18:54;;;;;;;;;;;10.90;11.60;;;;;;5055188;28;19916;-77
2024/03/31 03:21:29;;;;;;;;;;;10.90;9.50;;;;;;5060058;28;19919;-76
2024/03/31 03:24:05;;;;;;;;;;;10.90;12.10;;;;;;5063189;28;19912;-76
2024/03/31 03:26:53;;;;;;;;;;;10.90;10.70;;;;;;5055244;28;20353;-76
2024/03/31 03:29:29;;;;;;;;;;;10.90;10.50;;;;;;5047474;28;20367;-76
2024/03/31 03:32:05;;;;;;;;;;;10.90;11.10;;;;;;5053081;28;19913;-76
2024/03/31 03:34:31;;;;;;;;;;;10.90;8.40;;;;;;5048118;28;19913;-76
2024/03/31 03:37:05;;;;;;;;;;;10.80;11.00;;;;;;5066211;28;19923;-76
2024/03/31 03:39:36;;;;;;;;;;;10.90;11.10;;;;;;5061030;28;19920;-76
2024/03/31 03:42:02;;;;;;;;;;;10.90;11.20;;;;;;5054918;28;19909;-76
2024/03/31 03:44:42;;;;;;;;;;;10.80;9.60;;;;;;5057448;28;19913;-76
2024/03/31 03:47:08;;;;;;;;;;;10.80;12.20;;;;;;5054662;28;20494;-76
2024/03/31 03:49:41;;;;;;;;;;;10.80;12.60;;;;;;5055475;28;19909;-76
2024/03/31 03:52:06;;;;;;;;;;;10.80;10.90;;;;;;5043858;28;19909;-77
2024/03/31 03:54:41;;;;;;;;;;;10.80;14.00;;;;;;5054258;28;20094;-78
2024/03/31 03:57:06;;;;;;;;;;;10.80;12.10;;;;;;5054577;28;19920;-77
2024/03/31 03:59:32;;;;;;;;;;;10.80;14.70;;;;;;5054097;28;19909;-77
2024/03/31 04:01:58;;;;;;;;;;;10.80;10.80;;;;;;5039358;28;19913;-77
2024/03/31 04:07:35;;;;;;;;;;;10.80;13.00;;;;;;5063871;28;20019;-76
2024/03/31 04:10:00;;;;;;;;;;;10.70;11.50;;;;;;5054065;28;19909;-76
2024/03/31 04:12:26;;;;;;;;;;;10.70;12.10;;;;;;5046948;28;19919;-76
2024/03/31 04:15:11;;;;;;;;;;;10.70;9.90;;;;;;5067503;28;20015;-76
2024/03/31 04:17:49;;;;;;;;;;;10.70;12.50;;;;;;5053818;28;19921;-76
2024/03/31 04:20:15;;;;;;;;;;;10.70;9.30;;;;;;5053796;28;19920;-76
2024/03/31 04:22:41;;;;;;;;;;;10.70;11.10;;;;;;5061757;28;20276;-77
2024/03/31 04:25:06;;;;;;;;;;;10.60;10.10;;;;;;5041187;28;19955;-77
2024/03/31 04:27:32;;;;;;;;;;;10.60;12.80;;;;;;5053961;28;20025;-77
2024/03/31 04:30:05;;;;;;;;;;;10.60;13.50;;;;;;5057584;28;19919;-78
2024/03/31 04:32:31;;;;;;;;;;;10.60;10.60;;;;;;5060628;28;19995;-77
2024/03/31 04:35:11;;;;;;;;;;;10.60;13.10;;;;;;5052912;28;20031;-76
2024/03/31 04:37:41;;;;;;;;;;;10.60;11.10;;;;;;5040422;28;19928;-76
2024/03/31 04:40:07;;;;;;;;;;;10.60;14.00;;;;;;5045291;28;19966;-76
2024/03/31 04:42:41;;;;;;;;;;;10.60;14.20;;;;;;5053543;28;20007;-76
2024/03/31 04:45:06;;;;;;;;;;;10.60;13.90;;;;;;5053678;28;19908;-76
2024/03/31 04:47:32;;;;;;;;;;;10.60;9.90;;;;;;5038157;28;19913;-76
2024/03/31 04:49:58;;;;;;;;;;;10.60;12.20;;;;;;5041095;28;19913;-76
2024/03/31 04:52:41;;;;;;;;;;;10.60;13.20;;;;;;5057360;28;19913;-77
2024/03/31 04:55:23;;;;;;;;;;;10.50;13.60;;;;;;5053339;28;19916;-77
2024/03/31 04:57:48;;;;;;;;;;;10.50;14.50;;;;;;5053211;28;19928;-77
2024/03/31 05:00:14;;;;;;;;;;;10.50;15.00;;;;;;5053182;28;19909;-77
2024/03/31 05:02:40;;;;;;;;;;;10.50;14.30;;;;;;5058630;28;20067;-77
2024/03/31 05:05:23;;;;;;;;;;;10.50;14.50;;;;;;5053153;28;19913;-77
2024/03/31 05:07:53;;;;;;;;;;;10.50;15.30;;;;;;5033931;28;19909;-77
2024/03/31 05:10:23;;;;;;;;;;;10.50;16.10;;;;;;5052898;28;19921;-77
2024/03/31 05:13:01;;;;;;;;;;;10.60;16.00;;;;;;5052949;28;19916;-77
2024/03/31 05:15:53;;;;;;;;;;;10.60;15.60;;;;;;5035635;28;19913;-77
2024/03/31 05:18:23;;;;;;;;;;;10.60;16.10;;;;;;5034818;28;19975;-78
2024/03/31 05:20:59;;;;;;;;;;;10.60;15.30;;;;;;5056066;28;19960;-77
2024/03/31 05:26:27;;;;;;;;;;;10.60;14.10;;;;;;5052741;28;19951;-77
2024/03/31 05:29:05;;;;;;;;;;;10.60;9.10;;;;;;5053059;28;19952;-77
2024/03/31 05:31:35;;;;;;;;;;;10.60;11.50;;;;;;5072756;28;19967;-77
2024/03/31 05:34:03;;;;;;;;;;;10.60;11.00;;;;;;5072004;28;19944;-78
2024/03/31 05:36:35;;;;;;;;;;;10.60;12.30;;;;;;5056864;28;20356;-77
2024/03/31 05:39:06;;;;;;;;;;;10.60;13.20;;;;;;5056493;28;19920;-76
2024/03/31 05:41:31;;;;;;;;;;;10.60;12.10;;;;;;5050885;28;19912;-84
2024/03/31 05:43:59;;;;;;;;;;;10.60;14.90;;;;;;5053426;28;19944;-76
2024/03/31 05:46:27;;;;;;;;;;;10.70;15.10;;;;;;5052763;28;19916;-76
2024/03/31 05:49:05;;;;;;;;;;;10.70;15.20;;;;;;5052762;28;19916;-75
2024/03/31 05:51:31;;;;;;;;;;;10.70;14.60;;;;;;5046898;28;19959;-77
2024/03/31 05:53:59;;;;;;;;;;;10.80;13.60;;;;;;5056127;28;19918;-77
2024/03/31 05:56:25;;;;;;;;;;;10.80;12.40;;;;;;5053623;28;19921;-78
2024/03/31 05:59:05;;;;;;;;;;;10.90;10.40;;;;;;5049498;28;19913;-78
2024/03/31 06:01:35;;;;;;;;;;;10.90;13.10;;;;;;5052839;28;19916;-77
2024/03/31 06:04:17;;;;;;;;;;;11.00;14.00;;;;;;5055209;28;19920;-77
2024/03/31 06:06:43;;;;;;;;;;;11.00;12.60;;;;;;5062990;28;19913;-77
2024/03/31 06:09:29;;;;;;;;;;;11.00;12.70;;;;;;5054047;28;19916;-77
2024/03/31 06:11:59;;;;;;;;;;;11.10;11.70;;;;;;5064140;28;20366;-77
2024/03/31 06:14:35;;;;;;;;;;;11.10;11.50;;;;;;5052373;28;19913;-76
2024/03/31 06:17:05;;;;;;;;;;;9.90;9.20;;;;;;5047452;28;20288;-77
2024/03/31 06:19:41;;;;;;;;;;;11.20;13.20;;;;;;5046416;28;19913;-78
2024/03/31 06:22:29;;;;;;;;;;;11.20;13.10;;;;;;5049851;28;19920;-77
2024/03/31 06:24:59;;;;;;;;;;;11.30;13.80;;;;;;5057446;28;19913;-77
2024/03/31 06:27:29;;;;;;;;;;;11.30;13.10;;;;;;5058617;28;20360;-77
2024/03/31 06:29:55;;;;;;;;;;;11.40;12.80;;;;;;5056065;28;19998;-77
2024/03/31 06:32:20;;;;;;;;;;;11.50;10.30;;;;;;5049997;28;19984;-77
2024/03/31 06:35:11;;;;;;;;;;;11.50;8.80;;;;;;5055413;28;19913;-77
2024/03/31 06:37:59;;;;;;;;;;;11.60;9.00;;;;;;5057531;28;19920;-77
2024/03/31 06:40:29;;;;;;;;;;;11.60;8.10;;;;;;5058946;28;19912;-78
2024/03/31 06:43:29;;;;;;;;;;;11.80;8.60;;;;;;5054329;28;19959;-79
2024/03/31 06:46:05;;;;;;;;;;;11.80;10.60;;;;;;5071670;28;19931;-78
2024/03/31 06:48:31;;;;;;;;;;;11.90;7.10;;;;;;5058697;28;19909;-78
2024/03/31 06:51:06;;;;;;;;;;;11.80;5.40;;;;;;5051690;28;19920;-78
2024/03/31 06:53:31;;;;;;;;;;;11.80;8.10;;;;;;5057210;28;20000;-77
2024/03/31 06:55:57;;;;;;;;;;;11.80;9.70;;;;;;5053936;28;19952;-77
2024/03/31 06:58:29;;;;;;;;;;;11.80;9.90;;;;;;5052830;28;19916;-78
2024/03/31 07:00:59;;;;;;;;;;;11.90;16.20;;;;;;5062413;28;19962;-77
2024/03/31 07:06:53;;;;;;;;;;;12.50;20.70;;;;;;5064196;28;20431;-77
2024/03/31 07:09:19;;;;;;;;;;;12.70;22.90;;;;;;5055376;28;19909;-77
2024/03/31 07:11:45;;;;;;;;;;;12.90;17.00;;;;;;5045049;28;19909;-77
2024/03/31 07:14:11;;;;;;;;;;;13.10;14.60;;;;;;5053761;28;19923;-77
2024/03/31 07:16:53;;;;;;;;;;;13.40;12.50;;;;;;5055134;28;19920;-77
2024/03/31 07:19:19;;;;;;;;;;;13.50;1.80;;;;;;5053049;28;19912;-77
2024/03/31 07:21:45;;;;;;;;;;;13.60;1.00;;;;;;5043756;28;19967;-77
2024/03/31 07:24:29;;;;;;;;;;;13.70;1.00;;;;;;5054616;28;19912;-77
2024/03/31 07:26:59;;;;;;;;;;;13.70;1.00;;;;;;5061746;28;19920;-77
2024/03/31 07:29:25;;;;;;;;;;;13.80;1.00;;;;;;5044715;28;19908;-77
2024/03/31 07:31:53;;;;;;;;;;;13.70;1.00;;;;;;5054849;28;20015;-77
2024/03/31 07:34:23;;;;;;;;;;;13.70;1.00;;;;;;5054814;28;19913;-77
2024/03/31 07:36:59;;;;;;;;;;;13.70;1.00;;;;;;5057915;28;19953;-78
2024/03/31 07:39:25;;;;;;;;;;;13.80;1.00;;;;;;5058121;28;19913;-77
2024/03/31 07:41:59;;;;;;;;;;;13.80;1.00;;;;;;5056808;28;20015;-77
2024/03/31 07:44:29;;;;;;;;;;;13.90;1.00;;;;;;5053002;28;20331;-77
2024/03/31 07:46:59;;;;;;;;;;;13.90;1.00;;;;;;5054506;28;19916;-77
2024/03/31 07:49:25;;;;;;;;;;;14.00;1.00;;;;;;5054456;28;19909;-79
2024/03/31 07:51:53;;;;;;;;;;;14.00;1.00;;;;;;5065997;28;19912;-78
2024/03/31 07:54:35;;;;;;;;;;;14.00;1.00;;;;;;5054894;28;19916;-78
2024/03/31 07:57:04;;;;;;;;;;;13.90;1.00;;;;;;5052476;28;19966;-77
2024/03/31 07:59:41;;;;;;;;;;;13.90;1.00;;;;;;5045362;28;19959;-77
2024/03/31 08:02:23;;;;;;;;;;;13.90;1.00;;;;;;5044355;28;19942;-77
2024/03/31 08:04:59;;;;;;;;;;;14.00;1.00;;;;;;5050122;28;19913;-77
2024/03/31 08:07:25;;;;;;;;;;;14.10;1.00;;;;;;5058985;28;19959;-83
2024/03/31 08:10:01;;;;;;;;;;;14.10;1.00;;;;;;5053576;28;19913;-85
2024/03/31 08:12:29;;;;;;;;;;;13.80;1.00;;;;;;5032652;28;19913;-80
2024/03/31 08:15:17;;;;;;;;;;;13.80;1.00;;;;;;5042217;28;20008;-78
2024/03/31 08:17:59;;;;;;;;;;;13.70;1.00;;;;;;5049877;28;20015;-80
2024/03/31 08:20:31;;;;;;;;;;;13.60;1.00;;;;;;5055464;28;19921;-77
2024/03/31 08:22:57;;;;;;;;;;;13.60;1.00;;;;;;5049185;28;19920;-77
2024/03/31 08:25:25;;;;;;;;;;;13.60;1.00;;;;;;5052337;28;19913;-77
2024/03/31 08:28:00;;;;;;;;;;;13.60;1.00;;;;;;5052477;28;19920;-76
2024/03/31 08:30:35;;;;;;;;;;;13.60;1.00;;;;;;5048971;28;19999;-77
2024/03/31 08:33:00;;;;;;;;;;;13.60;1.00;;;;;;5052371;28;19913;-77
2024/03/31 08:35:30;;;;;;;;;;;13.70;1.00;;;;;;5052989;28;19924;-78
2024/03/31 08:37:59;;;;;;;;;;;13.70;1.00;;;;;;5037385;28;19943;-76
2024/03/31 08:40:59;;;;;;;;;;;13.80;1.00;;;;;;5059423;28;20001;-77
2024/03/31 08:43:31;;;;;;;;;;;13.90;1.00;;;;;;5046875;28;19959;-77
2024/03/31 08:45:58;;;;;;;;;;;14.00;1.00;;;;;;5052591;28;19988;-78
2024/03/31 08:48:25;;;;;;;;;;;14.30;1.00;;;;;;5056451;28;19913;-77
2024/03/31 08:51:05;;;;;;;;;;;14.50;1.00;;;;;;5053278;28;19913;-77
2024/03/31 08:53:35;;;;;;;;;;;14.50;1.00;;;;;;5044948;28;20089;-80
2024/03/31 08:56:23;;;;;;;;;;;14.90;1.00;;;;;;5054916;28;20008;-81
2024/03/31 08:58:55;;;;;;;;;;;15.10;1.00;;;;;;5052597;28;19917;-77
2024/03/31 09:01:24;;;;;;;;;;;15.40;1.00;;;;;;5048248;28;19947;-75
2024/03/31 09:03:49;;;;;;;;;;;15.50;1.00;;;;;;5051869;28;20364;-74
2024/03/31 09:06:15;;;;;;;;;;;15.80;1.00;;;;;;5032878;28;19920;-75
2024/03/31 09:08:41;;;;;;;;;;;16.10;1.00;;;;;;5052305;28;19913;-75
2024/03/31 09:11:12;;;;;;;;;;;16.40;1.00;;;;;;5052237;28;19909;-79
2024/03/31 09:13:38;;;;;;;;;;;16.50;1.00;;;;;;5049776;28;19992;-79
2024/03/31 09:16:11;;;;;;;;;;;16.50;1.00;;;;;;5049855;28;20594;-79
2024/03/31 09:18:42;;;;;;;;;;;16.70;1.00;;;;;;5045627;28;19925;-79
2024/03/31 09:21:23;;;;;;;;;;;16.70;1.00;;;;;;5059595;28;19908;-79
2024/03/31 09:29:59;;;;;;;;;;;17.10;1.00;;;;;;5059880;28;20279;-78
2024/03/31 09:32:41;;;;;;;;;;;17.10;1.00;;;;;;5052221;28;20066;-78
2024/03/31 09:35:23;;;;;;;;;;;17.10;1.00;;;;;;5061209;28;19958;-78
2024/03/31 09:37:54;;;;;;;;;;;17.10;1.00;;;;;;5050421;28;19923;-79
2024/03/31 09:40:30;;;;;;;;;;;17.30;1.00;;;;;;5059500;28;19913;-79
2024/03/31 09:43:06;;;;;;;;;;;17.60;1.00;;;;;;5055193;28;19909;-78
2024/03/31 09:45:43;;;;;;;;;;;17.70;1.00;;;;;;5052156;28;20337;-79
2024/03/31 09:48:16;;;;;;;;;;;17.80;1.00;;;;;;5052259;28;19913;-78
2024/03/31 09:50:43;;;;;;;;;;;17.80;1.00;;;;;;5052569;28;19980;-79
2024/03/31 09:53:16;;;;;;;;;;;17.90;1.00;;;;;;5045178;28;20386;-79
2024/03/31 09:56:12;;;;;;;;;;;17.90;1.00;;;;;;5048123;28;20410;-76
2024/03/31 09:58:52;;;;;;;;;;;17.90;1.00;;;;;;5052308;28;19917;-79
2024/03/31 10:01:18;;;;;;;;;;;18.10;1.00;;;;;;5059466;28;19912;-78
2024/03/31 10:04:12;;;;;;;;;;;18.30;1.00;;;;;;5060671;28;19919;-78
2024/03/31 10:06:42;;;;;;;;;;;18.40;1.00;;;;;;5056245;28;19909;-78
2024/03/31 10:09:08;;;;;;;;;;;18.70;1.00;;;;;;5038012;28;19909;-79
2024/03/31 10:11:34;;;;;;;;;;;18.80;1.00;;;;;;5049224;28;20386;-75
2024/03/31 10:14:00;;;;;;;;;;;19.10;1.00;;;;;;5060906;28;19909;-75
2024/03/31 10:16:26;;;;;;;;;;;19.10;1.00;;;;;;5062813;28;19963;-75
2024/03/31 10:18:52;;;;;;;;;;;19.20;1.00;;;;;;5055796;28;20348;-75
2024/03/31 10:21:19;;;;;;;;;;;19.10;1.00;;;;;;5056117;28;19919;-75
2024/03/31 10:23:46;;;;;;;;;;;18.90;1.00;;;;;;5062242;28;19936;-75
2024/03/31 10:26:12;;;;;;;;;;;18.80;1.00;;;;;;5061662;28;19909;-75
2024/03/31 10:28:42;;;;;;;;;;;18.70;1.00;;;;;;5073457;28;19919;-75
2024/03/31 10:31:08;;;;;;;;;;;18.70;1.00;;;;;;5063692;28;20344;-75
2024/03/31 10:33:34;;;;;;;;;;;18.70;1.00;;;;;;5074580;28;19958;-75
2024/03/31 10:36:00;;;;;;;;;;;18.80;1.00;;;;;;5071571;28;19916;-75
2024/03/31 10:38:30;;;;;;;;;;;18.80;1.00;;;;;;5054925;28;19917;-75
2024/03/31 10:40:55;;;;;;;;;;;18.80;1.00;;;;;;5052450;28;19908;-75
2024/03/31 10:43:21;;;;;;;;;;;18.70;1.00;;;;;;5055891;28;19963;-75
2024/03/31 10:45:47;;;;;;;;;;;18.70;1.00;;;;;;5053742;28;20011;-75
2024/03/31 10:48:12;;;;;;;;;;;18.70;1.00;;;;;;5048572;28;20398;-75
2024/03/31 10:50:42;;;;;;;;;;;18.70;1.00;;;;;;5055179;28;19908;-75
2024/03/31 10:53:09;;;;;;;;;;;18.80;1.00;;;;;;5052194;28;19924;-75
2024/03/31 10:55:34;;;;;;;;;;;19.10;1.00;;;;;;5055075;28;19979;-75
2024/03/31 10:58:36;;;;;;;;;;;19.20;1.00;;;;;;5066924;28;19956;-78
2024/03/31 11:01:06;;;;;;;;;;;19.20;1.00;;;;;;5051386;28;19912;-79
2024/03/31 11:03:36;;;;;;;;;;;19.60;1.00;;;;;;5055361;28;19963;-79
2024/03/31 11:06:13;;;;;;;;;;;19.70;1.00;;;;;;5058001;28;19947;-80
2024/03/31 11:08:42;;;;;;;;;;;19.70;1.00;;;;;;5061987;28;19909;-79
2024/03/31 11:11:09;;;;;;;;;;;19.70;1.00;;;;;;5046404;28;19913;-79
2024/03/31 11:13:37;;;;;;;;;;;19.60;1.00;;;;;;5048293;28;19983;-75
2024/03/31 11:16:04;;;;;;;;;;;19.60;1.00;;;;;;5055589;28;19924;-75
2024/03/31 11:18:30;;;;;;;;;;;19.60;1.00;;;;;;5051952;28;19913;-75
2024/03/31 11:21:15;;;;;;;;;;;19.60;1.00;;;;;;5052345;28;19920;-75
2024/03/31 11:23:42;;;;;;;;;;;19.70;1.00;;;;;;5054189;28;20007;-75
2024/03/31 11:26:08;;;;;;;;;;;19.90;1.00;;;;;;5060312;28;19952;-75
2024/03/31 11:28:36;;;;;;;;;;;19.90;1.00;;;;;;5048241;28;20382;-79
2024/03/31 11:31:18;;;;;;;;;;;19.90;1.00;;;;;;5054105;28;20360;-79
2024/03/31 11:34:00;;;;;;;;;;;19.90;1.00;;;;;;5064995;28;19944;-79
2024/03/31 11:39:42;;;;;;;;;;;19.80;1.00;;;;;;5028142;28;20478;-79
2024/03/31 11:42:09;;;;;;;;;;;20.20;1.00;;;;;;5041691;28;19921;-75
2024/03/31 11:44:37;;;;;;;;;;;20.50;1.00;;;;;;5052792;28;19913;-75
2024/03/31 11:47:03;;;;;;;;;;;20.80;1.00;;;;;;5058580;28;19919;-75
2024/03/31 11:49:31;;;;;;;;;;;21.20;1.00;;;;;;5053060;28;19999;-75
2024/03/31 11:51:57;;;;;;;;;;;21.20;1.00;;;;;;5052680;28;20291;-75
2024/03/31 11:54:24;;;;;;;;;;;21.50;1.00;;;;;;5053140;28;19913;-75
2024/03/31 11:56:49;;;;;;;;;;;21.50;1.00;;;;;;5056940;28;19917;-75
2024/03/31 11:59:15;;;;;;;;;;;21.60;1.00;;;;;;5054135;28;19913;-79
2024/03/31 12:01:41;;;;;;;;;;;21.50;1.00;;;;;;5067095;28;19913;-79
2024/03/31 12:04:17;;;;;;;;;;;21.40;1.00;;;;;;5047705;28;19912;-79
2024/03/31 12:06:44;;;;;;;;;;;21.20;1.00;;;;;;5052198;28;20373;-79
2024/03/31 12:09:10;;;;;;;;;;;21.20;1.00;;;;;;5053722;28;19913;-79
2024/03/31 12:11:43;;;;;;;;;;;21.00;1.00;;;;;;5052075;28;19920;-80
2024/03/31 12:14:13;;;;;;;;;;;21.00;1.00;;;;;;5047308;28;20503;-75
2024/03/31 12:16:41;;;;;;;;;;;21.00;1.00;;;;;;5048067;28;19956;-75
2024/03/31 12:19:06;;;;;;;;;;;21.10;1.00;;;;;;5056938;28;19960;-75
2024/03/31 12:21:32;;;;;;;;;;;21.20;1.00;;;;;;5044794;28;20015;-75
2024/03/31 12:24:00;;;;;;;;;;;21.50;1.00;;;;;;5050665;28;20390;-75
2024/03/31 12:26:26;;;;;;;;;;;21.80;1.00;;;;;;5058742;28;19909;-75
2024/03/31 12:28:52;;;;;;;;;;;21.90;1.00;;;;;;5055487;28;19920;-75
2024/03/31 12:31:25;;;;;;;;;;;22.20;1.00;;;;;;5045357;28;19919;-75
2024/03/31 12:33:54;;;;;;;;;;;22.30;1.00;;;;;;5050729;28;20356;-75
2024/03/31 12:36:20;;;;;;;;;;;22.60;1.00;;;;;;5044452;28;20086;-75
2024/03/31 12:38:46;;;;;;;;;;;22.60;1.00;;;;;;5046381;28;20439;-75
2024/03/31 12:41:14;;;;;;;;;;;22.70;1.00;;;;;;5037283;28;20385;-79
2024/03/31 12:43:43;;;;;;;;;;;22.60;1.00;;;;;;5052812;28;19909;-81
2024/03/31 12:46:09;;;;;;;;;;;22.60;1.00;;;;;;5059302;28;19912;-80
2024/03/31 12:48:45;;;;;;;;;;;22.60;1.00;;;;;;5051802;28;19915;-80
2024/03/31 12:51:42;;;;;;;;;;;22.60;1.00;;;;;;5053107;28;19920;-80
2024/03/31 12:54:42;;;;;;;;;;;22.50;1.00;;;;;;5037351;28;19909;-80
2024/03/31 12:57:08;;;;;;;;;;;22.30;1.00;;;;;;5029902;28;19917;-80
2024/03/31 12:59:42;;;;;;;;;;;22.10;1.00;;;;;;5032806;28;19920;-81
2024/03/31 13:02:14;;;;;;;;;;;22.20;1.00;;;;;;5042993;28;19909;-80
2024/03/31 13:04:42;;;;;;;;;;;22.30;1.00;;;;;;5036358;28;19913;-80
2024/03/31 13:07:12;;;;;;;;;;;22.50;1.00;;;;;;5059362;28;20499;-80
2024/03/31 13:10:12;;;;;;;;;;;22.50;1.00;;;;;;5059040;28;19920;-80
2024/03/31 13:12:42;;;;;;;;;;;22.40;1.00;;;;;;5045270;28;19912;-80
2024/03/31 13:15:13;;;;;;;;;;;22.40;1.00;;;;;;5060162;28;19960;-80
2024/03/31 13:17:42;;;;;;;;;;;22.20;1.00;;;;;;5052477;28;19919;-80
2024/03/31 13:20:12;;;;;;;;;;;21.90;1.00;;;;;;5055502;28;19970;-79
2024/03/31 13:22:42;;;;;;;;;;;21.80;1.00;;;;;;5052177;28;19913;-79
2024/03/31 13:25:08;;;;;;;;;;;21.80;1.00;;;;;;5060502;28;19909;-79
2024/03/31 13:27:42;;;;;;;;;;;21.90;1.00;;;;;;5046203;28;19909;-79
2024/03/31 13:30:18;;;;;;;;;;;21.90;1.00;;;;;;5052978;28;19909;-79
2024/03/31 13:33:12;;;;;;;;;;;22.10;1.00;;;;;;5058410;28;20391;-79
2024/03/31 13:35:42;;;;;;;;;;;22.50;1.00;;;;;;5060723;28;19908;-79
2024/03/31 13:38:12;;;;;;;;;;;22.90;1.00;;;;;;5061921;28;19977;-79
2024/03/31 13:40:42;;;;;;;;;;;23.30;1.00;;;;;;5070106;28;19988;-79
2024/03/31 13:43:12;;;;;;;;;;;23.40;1.00;;;;;;5061171;28;19920;-85
2024/03/31 13:45:37;;;;;;;;;;;23.50;1.00;;;;;;5069108;28;19913;-86
2024/03/31 13:48:12;;;;;;;;;;;23.40;1.00;;;;;;5052775;28;19919;-85
2024/03/31 13:50:42;;;;;;;;;;;23.30;1.00;;;;;;5049721;28;19917;-86
2024/03/31 13:53:07;;;;;;;;;;;23.10;1.00;;;;;;5054681;28;19913;-85
2024/03/31 13:58:42;;;;;;;;;;;23.40;1.00;;;;;;5057336;28;19927;-84
2024/03/31 14:01:12;;;;;;;;;;;23.50;1.00;;;;;;5056514;28;19913;-80
2024/03/31 14:03:38;;;;;;;;;;;23.40;1.00;;;;;;5043191;28;19912;-80
2024/03/31 14:06:04;;;;;;;;;;;23.20;1.00;;;;;;5068125;28;19915;-80
2024/03/31 14:17:54;;;;;;;;;;;23.20;1.00;;;;;;5053481;28;20012;-82
2024/03/31 14:20:19;;;;;;;;;;;23.20;1.00;;;;;;5056495;28;19920;-82
2024/03/31 14:22:54;;;;;;;;;;;23.20;1.00;;;;;;5050927;28;19919;-81
2024/03/31 14:25:32;;;;;;;;;;;23.20;1.00;;;;;;5038091;28;19909;-82
2024/03/31 14:34:18;;;;;;;;;;;22.80;1.00;;;;;;5069135;28;19931;-83
2024/03/31 14:40:24;;;;;;;;;;;22.60;1.00;;;;;;5048248;28;19970;-82
2024/03/31 14:43:18;;;;;;;;;;;22.20;1.00;;;;;;5066919;28;19909;-82
2024/03/31 14:46:12;;;;;;;;;;;22.20;1.00;;;;;;5055875;28;19915;-82
2024/03/31 14:48:43;;;;;;;;;;;22.10;1.00;;;;;;5037550;28;19921;-82
2024/03/31 14:51:43;;;;;;;;;;;22.20;1.00;;;;;;5035524;28;19912;-82
2024/03/31 14:54:12;;;;;;;;;;;22.20;1.00;;;;;;5055475;28;19959;-81
2024/03/31 14:59:40;;;;;;;;;;;22.10;1.00;;;;;;5066937;28;19954;-80
2024/03/31 15:08:12;;;;;;;;;;;21.70;1.00;;;;;;5051075;28;19967;-79
2024/03/31 15:13:48;;;;;;;;;;;21.50;1.00;;;;;;5065805;28;19931;-79
2024/03/31 15:16:36;;;;;;;;;;;21.60;1.00;;;;;;5055553;28;19962;-79
2024/03/31 15:25:08;;;;;;;;;;;21.30;1.00;;;;;;5044879;28;19920;-79
2024/03/31 15:30:55;;;;;;;;;;;21.20;1.00;;;;;;5055138;28;19919;-81
2024/03/31 15:39:26;;;;;;;;;;;20.80;1.00;;;;;;5056331;28;19970;-80
2024/03/31 15:42:06;;;;;;;;;;;20.90;1.00;;;;;;5067684;28;19912;-81
2024/03/31 15:44:31;;;;;;;;;;;20.90;1.00;;;;;;5050945;28;19913;-81
2024/03/31 15:46:57;;;;;;;;;;;20.90;1.00;;;;;;5051332;28;19920;-79
2024/03/31 15:55:49;;;;;;;;;;;23.10;1.00;;;;;;5051625;28;19919;-79
2024/03/31 16:01:18;;;;;;;;;;;24.10;1.00;;;;;;5051117;28;19974;-79
2024/03/31 16:07:18;;;;;;;;;;;25.10;1.00;;;;;;5050181;28;20383;-80
2024/03/31 16:09:48;;;;;;;;;;;25.00;1.00;;;;;;5056751;28;19913;-80
2024/03/31 16:12:18;;;;;;;;;;;24.80;1.00;;;;;;5045908;28;19916;-79
2024/03/31 16:14:48;;;;;;;;;;;24.90;1.00;;;;;;5045823;28;19974;-81
2024/03/31 16:17:18;;;;;;;;;;;25.00;1.00;;;;;;5044427;28;19922;-79
2024/03/31 16:19:48;;;;;;;;;;;24.80;1.00;;;;;;5034157;28;19909;-77
2024/03/31 16:22:18;;;;;;;;;;;24.70;1.00;;;;;;5045202;28;19914;-80
2024/03/31 16:27:54;;;;;;;;;;;23.30;1.00;;;;;;5053471;28;19913;-80
2024/03/31 16:30:20;;;;;;;;;;;22.80;1.00;;;;;;5063556;28;19920;-83